createdAt,value
2018-04-17T00:00:17.251Z,8.40
2018-04-17T00:02:46.545Z,8.30
2018-04-17T00:05:14.882Z,8.30
2018-04-17T00:07:43.272Z,8.30
2018-04-17T00:10:11.690Z,8.30
2018-04-17T00:12:40.097Z,8.20
2018-04-17T00:15:09.221Z,8.10
2018-04-17T00:17:37.637Z,8.10
2018-04-17T00:20:05.994Z,8.10
2018-04-17T00:22:34.373Z,8.10
2018-04-17T00:25:03.106Z,8.20
2018-04-17T00:27:31.483Z,8.20
2018-04-17T00:29:59.840Z,8.10
2018-04-17T00:32:28.241Z,8.10
2018-04-17T00:34:56.596Z,8.00
2018-04-17T00:37:25.015Z,7.90
2018-04-17T00:39:53.373Z,7.90
2018-04-17T00:42:22.529Z,7.80
2018-04-17T00:44:50.932Z,7.80
2018-04-17T00:47:19.257Z,7.80
2018-04-17T00:49:47.623Z,7.80
2018-04-17T00:52:16.008Z,7.80
2018-04-17T00:54:44.417Z,7.70
2018-04-17T00:57:12.797Z,7.60
2018-04-17T00:59:41.175Z,7.60
2018-04-17T01:02:09.531Z,7.60
2018-04-17T01:04:37.888Z,7.60
2018-04-17T01:07:07.052Z,7.60
2018-04-17T01:09:35.484Z,7.60
2018-04-17T01:12:03.833Z,7.50
2018-04-17T01:14:33.000Z,7.40
2018-04-17T01:17:01.351Z,7.40
2018-04-17T01:19:29.750Z,7.40
2018-04-17T01:21:58.134Z,7.30
2018-04-17T01:24:26.493Z,7.40
2018-04-17T01:26:55.009Z,7.30
2018-04-17T01:29:23.387Z,7.20
2018-04-17T01:31:51.772Z,7.30
2018-04-17T01:34:20.948Z,7.20
2018-04-17T01:36:49.303Z,7.20
2018-04-17T01:39:17.693Z,7.20
2018-04-17T01:41:46.081Z,7.10
2018-04-17T01:44:14.983Z,7.10
2018-04-17T01:46:43.316Z,7.10
2018-04-17T01:49:11.699Z,7.10
2018-04-17T01:51:40.119Z,7.10
2018-04-17T01:54:08.473Z,7.10
2018-04-17T01:56:36.880Z,7.10
2018-04-17T01:59:05.972Z,7.20
2018-04-17T02:01:34.835Z,7.20
2018-04-17T02:04:03.190Z,7.20
2018-04-17T02:06:31.511Z,7.20
2018-04-17T02:09:00.029Z,7.10
2018-04-17T02:11:28.372Z,7.10
2018-04-17T02:13:57.529Z,6.90
2018-04-17T02:16:26.353Z,6.90
2018-04-17T02:18:54.751Z,6.80
2018-04-17T02:21:23.904Z,6.70
2018-04-17T02:23:53.416Z,6.70
2018-04-17T02:26:21.796Z,6.70
2018-04-17T02:28:50.182Z,6.70
2018-04-17T02:31:18.529Z,6.70
2018-04-17T02:33:46.873Z,6.70
2018-04-17T02:36:15.200Z,6.60
2018-04-17T02:38:43.643Z,6.60
2018-04-17T02:41:12.011Z,6.60
2018-04-17T02:43:40.403Z,6.60
2018-04-17T02:46:08.803Z,6.50
2018-04-17T02:48:37.186Z,6.50
2018-04-17T02:51:06.323Z,6.50
2018-04-17T02:53:35.514Z,6.50
2018-04-17T02:56:04.705Z,6.50
2018-04-17T02:58:33.880Z,6.40
2018-04-17T03:01:02.245Z,6.40
2018-04-17T03:03:31.051Z,6.50
2018-04-17T03:05:59.425Z,6.50
2018-04-17T03:08:27.792Z,6.40
2018-04-17T03:10:56.177Z,6.40
2018-04-17T03:13:24.502Z,6.40
2018-04-17T03:15:52.879Z,6.50
2018-04-17T03:18:21.617Z,6.50
2018-04-17T03:20:50.000Z,6.50
2018-04-17T03:23:18.404Z,6.40
2018-04-17T03:25:47.617Z,6.40
2018-04-17T03:28:15.956Z,6.30
2018-04-17T03:30:44.352Z,6.40
2018-04-17T03:33:13.619Z,6.30
2018-04-17T03:35:42.038Z,6.30
2018-04-17T03:38:11.133Z,6.30
2018-04-17T03:40:40.322Z,6.30
2018-04-17T03:43:09.445Z,6.40
2018-04-17T03:45:37.804Z,6.30
2018-04-17T03:48:06.959Z,6.30
2018-04-17T03:50:35.374Z,6.30
2018-04-17T03:53:04.529Z,6.20
2018-04-17T03:55:32.920Z,6.20
2018-04-17T03:58:01.281Z,6.10
2018-04-17T04:00:30.377Z,6.10
2018-04-17T04:02:59.208Z,6.10
2018-04-17T04:05:28.340Z,6.20
2018-04-17T04:07:56.753Z,6.20
2018-04-17T04:10:25.284Z,6.20
2018-04-17T04:12:53.645Z,6.30
2018-04-17T04:15:22.804Z,6.20
2018-04-17T04:18:03.245Z,6.20
2018-04-17T04:20:43.556Z,6.30
2018-04-17T04:23:24.497Z,6.30
2018-04-17T04:26:04.642Z,6.30
2018-04-17T04:28:33.831Z,6.20
2018-04-17T04:31:02.171Z,6.20
2018-04-17T04:33:30.552Z,6.20
2018-04-17T04:35:58.941Z,6.20
2018-04-17T04:38:27.444Z,6.30
2018-04-17T04:40:55.852Z,6.30
2018-04-17T04:43:24.212Z,6.30
2018-04-17T04:45:53.379Z,6.40
2018-04-17T04:48:21.715Z,6.40
2018-04-17T04:50:50.907Z,6.50
2018-04-17T04:53:19.310Z,6.50
2018-04-17T04:55:47.711Z,6.50
2018-04-17T04:58:16.050Z,6.50
2018-04-17T05:00:45.200Z,6.70
2018-04-17T05:03:13.616Z,6.70
2018-04-17T05:05:42.004Z,6.80
2018-04-17T05:08:11.157Z,6.80
2018-04-17T05:10:39.498Z,6.80
2018-04-17T05:13:07.898Z,7.00
2018-04-17T05:15:36.283Z,7.10
2018-04-17T05:18:04.639Z,7.10
2018-04-17T05:20:33.020Z,7.10
2018-04-17T05:23:01.401Z,7.10
2018-04-17T05:25:29.756Z,7.20
2018-04-17T05:27:58.936Z,7.30
2018-04-17T05:30:28.094Z,7.50
2018-04-17T05:32:56.458Z,7.50
2018-04-17T05:35:24.817Z,7.60
2018-04-17T05:37:53.839Z,7.80
2018-04-17T05:40:22.228Z,7.80
2018-04-17T05:42:51.379Z,7.80
2018-04-17T05:45:19.727Z,7.80
2018-04-17T05:47:48.108Z,7.90
2018-04-17T05:50:16.565Z,8.00
2018-04-17T05:52:45.020Z,8.00
2018-04-17T05:55:13.448Z,8.10
2018-04-17T05:57:42.595Z,8.30
2018-04-17T06:00:11.154Z,8.30
2018-04-17T06:02:39.491Z,8.40
2018-04-17T06:05:07.905Z,8.40
2018-04-17T06:07:36.328Z,8.50
2018-04-17T06:10:04.748Z,8.70
2018-04-17T06:12:33.945Z,8.70
2018-04-17T06:15:03.108Z,8.70
2018-04-17T06:17:31.520Z,8.70
2018-04-17T06:20:00.726Z,8.90
2018-04-17T06:22:29.141Z,8.80
2018-04-17T06:24:57.477Z,9.00
2018-04-17T06:27:26.993Z,9.20
2018-04-17T06:29:55.361Z,9.20
2018-04-17T06:32:24.525Z,9.30
2018-04-17T06:34:53.033Z,9.40
2018-04-17T06:37:22.200Z,9.60
2018-04-17T06:39:50.565Z,9.60
2018-04-17T06:42:19.002Z,9.70
2018-04-17T06:44:47.399Z,9.90
2018-04-17T06:47:15.838Z,10.00
2018-04-17T06:49:45.026Z,10.30
2018-04-17T06:52:14.158Z,10.60
2018-04-17T06:54:42.581Z,10.60
2018-04-17T06:57:10.952Z,11.00
2018-04-17T06:59:39.392Z,11.20
2018-04-17T07:02:07.769Z,11.40
2018-04-17T07:04:36.113Z,11.60
2018-04-17T07:07:05.297Z,11.80
2018-04-17T07:09:34.599Z,11.80
2018-04-17T07:12:03.021Z,12.00
2018-04-17T07:14:31.433Z,12.20
2018-04-17T07:17:00.630Z,12.30
2018-04-17T07:19:28.972Z,12.50
2018-04-17T07:21:57.388Z,12.60
2018-04-17T07:24:25.749Z,12.60
2018-04-17T07:26:54.890Z,12.70
2018-04-17T07:29:23.333Z,12.70
2018-04-17T07:31:51.704Z,12.90
2018-04-17T07:34:20.121Z,13.10
2018-04-17T07:36:48.539Z,13.30
2018-04-17T07:39:16.955Z,13.40
2018-04-17T07:41:45.321Z,13.60
2018-04-17T07:44:13.694Z,13.80
2018-04-17T07:46:42.078Z,13.80
2018-04-17T07:49:12.121Z,13.70
2018-04-17T07:51:40.940Z,13.80
2018-04-17T07:54:10.095Z,14.10
2018-04-17T07:56:38.596Z,14.10
2018-04-17T07:59:07.233Z,14.30
2018-04-17T08:01:36.639Z,14.50
2018-04-17T08:04:05.096Z,14.60
2018-04-17T08:06:33.441Z,14.80
2018-04-17T08:09:01.973Z,14.90
2018-04-17T08:11:30.359Z,15.00
2018-04-17T08:13:58.728Z,15.30
2018-04-17T08:16:27.134Z,15.50
2018-04-17T08:18:55.539Z,15.70
2018-04-17T08:21:24.673Z,15.70
2018-04-17T08:23:53.067Z,15.60
2018-04-17T08:26:22.000Z,15.70
2018-04-17T08:28:50.723Z,15.70
2018-04-17T08:31:19.133Z,16.00
2018-04-17T08:33:47.554Z,15.90
2018-04-17T08:36:16.009Z,16.00
2018-04-17T08:38:44.393Z,16.20
2018-04-17T08:41:12.916Z,16.10
2018-04-17T08:43:41.258Z,16.30
2018-04-17T08:46:09.657Z,16.50
2018-04-17T08:48:38.835Z,16.70
2018-04-17T08:51:07.739Z,16.70
2018-04-17T08:53:36.144Z,16.90
2018-04-17T08:56:04.484Z,17.00
2018-04-17T08:58:32.946Z,17.20
2018-04-17T09:01:01.344Z,17.20
2018-04-17T09:03:30.492Z,17.70
2018-04-17T09:05:58.889Z,17.70
2018-04-17T09:08:27.679Z,17.90
2018-04-17T09:10:56.239Z,17.60
2018-04-17T09:13:24.580Z,17.90
2018-04-17T09:15:53.036Z,18.10
2018-04-17T09:18:21.433Z,18.20
2018-04-17T09:20:50.534Z,18.50
2018-04-17T09:23:19.748Z,18.80
2018-04-17T09:25:48.241Z,18.80
2018-04-17T09:28:16.656Z,18.80
2018-04-17T09:30:45.231Z,18.80
2018-04-17T09:33:13.704Z,18.90
2018-04-17T09:35:42.113Z,19.30
2018-04-17T09:38:10.541Z,19.30
2018-04-17T09:40:38.941Z,19.20
2018-04-17T09:43:07.711Z,19.50
2018-04-17T09:45:36.053Z,19.20
2018-04-17T09:48:05.223Z,19.60
2018-04-17T09:50:33.924Z,19.60
2018-04-17T09:53:02.342Z,19.80
2018-04-17T09:55:30.780Z,19.80
2018-04-17T09:57:59.941Z,20.10
2018-04-17T10:00:28.728Z,20.10
2018-04-17T10:02:57.083Z,20.00
2018-04-17T10:05:26.411Z,19.70
2018-04-17T10:07:54.829Z,19.60
2018-04-17T10:10:23.996Z,20.40
2018-04-17T10:12:52.421Z,20.40
2018-04-17T10:15:20.812Z,20.70
2018-04-17T10:17:49.144Z,20.90
2018-04-17T10:20:17.536Z,21.20
2018-04-17T10:22:46.689Z,21.10
2018-04-17T10:25:15.344Z,21.10
2018-04-17T10:27:43.756Z,21.00
2018-04-17T10:30:12.147Z,21.10
2018-04-17T10:32:40.679Z,21.40
2018-04-17T10:35:09.073Z,21.40
2018-04-17T10:37:37.469Z,20.80
2018-04-17T10:40:05.888Z,20.90
2018-04-17T10:42:35.469Z,21.30
2018-04-17T10:45:03.909Z,21.30
2018-04-17T10:47:32.608Z,21.40
2018-04-17T10:50:01.099Z,21.50
2018-04-17T10:52:29.485Z,21.20
2018-04-17T10:54:57.861Z,21.30
2018-04-17T10:57:26.270Z,21.10
2018-04-17T10:59:55.412Z,21.10
2018-04-17T11:02:23.814Z,21.00
2018-04-17T11:04:52.242Z,21.20
2018-04-17T11:07:20.922Z,21.00
2018-04-17T11:09:49.359Z,20.90
2018-04-17T11:12:17.757Z,21.00
2018-04-17T11:14:46.096Z,21.10
2018-04-17T11:17:14.596Z,21.00
2018-04-17T11:19:43.001Z,21.00
2018-04-17T11:22:12.141Z,20.70
2018-04-17T11:24:40.579Z,20.70
2018-04-17T11:27:09.744Z,20.90
2018-04-17T11:29:38.141Z,20.90
2018-04-17T11:32:06.598Z,21.20
2018-04-17T11:34:34.992Z,21.50
2018-04-17T11:37:04.527Z,21.70
2018-04-17T11:39:33.647Z,21.60
2018-04-17T11:42:02.053Z,21.60
2018-04-17T11:44:30.452Z,21.10
2018-04-17T11:46:58.850Z,21.40
2018-04-17T11:49:28.171Z,21.80
2018-04-17T11:51:56.584Z,21.80
2018-04-17T11:54:24.986Z,21.80
2018-04-17T11:56:53.371Z,21.50
2018-04-17T11:59:21.770Z,21.60
2018-04-17T12:01:50.951Z,21.50
2018-04-17T12:04:20.143Z,21.40
2018-04-17T12:06:48.658Z,21.40
2018-04-17T12:09:16.988Z,21.50
2018-04-17T12:11:45.389Z,21.10
2018-04-17T12:14:14.546Z,21.20
2018-04-17T12:16:43.072Z,21.30
2018-04-17T12:19:12.232Z,21.90
2018-04-17T12:21:40.568Z,21.90
2018-04-17T12:24:08.987Z,22.30
2018-04-17T12:26:37.386Z,22.30
2018-04-17T12:29:05.940Z,22.20
2018-04-17T12:31:34.300Z,22.10
2018-04-17T12:34:02.692Z,22.20
2018-04-17T12:36:31.103Z,22.10
2018-04-17T12:38:59.497Z,22.30
2018-04-17T12:41:28.782Z,22.10
2018-04-17T12:43:57.168Z,22.00
2018-04-17T12:46:26.268Z,22.00
2018-04-17T12:48:55.453Z,22.00
2018-04-17T12:51:23.975Z,22.00
2018-04-17T12:53:52.299Z,22.00
2018-04-17T12:56:20.688Z,21.80
2018-04-17T12:58:49.166Z,21.50
2018-04-17T13:01:17.560Z,21.60
2018-04-17T13:03:46.723Z,21.90
2018-04-17T13:06:15.271Z,21.90
2018-04-17T13:08:43.653Z,21.90
2018-04-17T13:11:12.019Z,22.10
2018-04-17T13:13:40.437Z,21.90
2018-04-17T13:16:08.812Z,21.80
2018-04-17T13:18:37.244Z,22.00
2018-04-17T13:21:05.636Z,22.00
2018-04-17T13:23:33.995Z,22.00
2018-04-17T13:26:03.122Z,21.90
2018-04-17T13:28:31.487Z,21.90
2018-04-17T13:30:59.944Z,21.90
2018-04-17T13:33:29.088Z,22.00
2018-04-17T13:35:57.477Z,22.00
2018-04-17T13:38:25.906Z,21.90
2018-04-17T13:40:54.263Z,22.00
2018-04-17T13:43:23.407Z,22.10
2018-04-17T13:45:51.816Z,22.10
2018-04-17T13:48:20.249Z,22.10
2018-04-17T13:50:48.641Z,22.10
2018-04-17T13:53:17.051Z,22.10
2018-04-17T13:55:45.408Z,22.10
2018-04-17T13:58:13.844Z,22.20
2018-04-17T14:00:42.973Z,22.30
2018-04-17T14:03:11.384Z,22.30
2018-04-17T14:05:39.891Z,22.10
2018-04-17T14:08:08.992Z,21.90
2018-04-17T14:10:38.150Z,21.90
2018-04-17T14:13:06.512Z,21.90
2018-04-17T14:15:34.925Z,22.20
2018-04-17T14:18:03.256Z,22.60
2018-04-17T14:20:31.618Z,22.40
2018-04-17T14:23:00.028Z,22.40
2018-04-17T14:25:28.456Z,22.30
2018-04-17T14:27:57.557Z,22.40
2018-04-17T14:30:26.857Z,22.40
2018-04-17T14:32:55.253Z,22.30
2018-04-17T14:35:23.648Z,22.40
2018-04-17T14:37:52.040Z,22.50
2018-04-17T14:40:20.408Z,22.50
2018-04-17T14:42:48.774Z,22.50
2018-04-17T14:45:17.159Z,22.60
2018-04-17T14:47:46.230Z,22.70
2018-04-17T14:50:14.564Z,22.50
2018-04-17T14:52:42.971Z,22.50
2018-04-17T14:55:11.368Z,22.50
2018-04-17T14:57:39.835Z,22.70
2018-04-17T15:00:08.397Z,22.80
2018-04-17T15:02:36.788Z,22.80
2018-04-17T15:05:06.040Z,22.70
2018-04-17T15:07:34.450Z,22.70
2018-04-17T15:10:02.897Z,22.80
2018-04-17T15:12:31.238Z,22.70
2018-04-17T15:14:59.609Z,22.80
2018-04-17T15:17:28.056Z,22.60
2018-04-17T15:19:56.461Z,22.40
2018-04-17T15:22:25.011Z,22.50
2018-04-17T15:24:53.429Z,22.40
2018-04-17T15:27:21.764Z,22.20
2018-04-17T15:29:50.125Z,22.10
2018-04-17T15:32:18.525Z,21.90
2018-04-17T15:34:46.876Z,21.80
2018-04-17T15:37:15.293Z,21.80
2018-04-17T15:39:44.452Z,21.70
2018-04-17T15:42:12.824Z,21.70
2018-04-17T15:44:41.209Z,21.80
2018-04-17T15:47:09.602Z,21.80
2018-04-17T15:49:37.967Z,21.80
2018-04-17T15:52:06.441Z,21.80
2018-04-17T15:54:35.896Z,22.00
2018-04-17T15:57:05.053Z,22.40
2018-04-17T15:59:33.520Z,22.40
2018-04-17T16:02:01.937Z,22.40
2018-04-17T16:04:30.303Z,22.10
2018-04-17T16:06:59.504Z,22.00
2018-04-17T16:09:27.869Z,22.00
2018-04-17T16:11:56.280Z,22.20
2018-04-17T16:14:25.438Z,22.10
2018-04-17T16:16:53.796Z,22.10
2018-04-17T16:19:22.625Z,22.20
2018-04-17T16:21:51.077Z,22.20
2018-04-17T16:24:19.448Z,22.10
2018-04-17T16:26:47.870Z,21.70
2018-04-17T16:29:17.021Z,21.60
2018-04-17T16:31:45.392Z,21.60
2018-04-17T16:34:13.803Z,21.70
2018-04-17T16:36:42.226Z,21.80
2018-04-17T16:39:10.662Z,21.90
2018-04-17T16:41:39.049Z,22.00
2018-04-17T16:44:07.453Z,21.90
2018-04-17T16:46:36.741Z,22.10
2018-04-17T16:49:05.833Z,22.20
2018-04-17T16:51:34.967Z,22.10
2018-04-17T16:54:03.399Z,22.10
2018-04-17T16:56:32.649Z,21.80
2018-04-17T16:59:01.045Z,21.80
2018-04-17T17:01:29.461Z,21.60
2018-04-17T17:03:58.660Z,21.10
2018-04-17T17:06:27.816Z,20.70
2018-04-17T17:08:56.223Z,20.70
2018-04-17T17:11:24.562Z,20.60
2018-04-17T17:13:52.905Z,20.50
2018-04-17T17:16:21.259Z,20.30
2018-04-17T17:18:49.661Z,20.00
2018-04-17T17:21:18.053Z,19.80
2018-04-17T17:23:46.436Z,19.80
2018-04-17T17:26:14.833Z,19.70
2018-04-17T17:28:43.742Z,19.60
2018-04-17T17:31:12.135Z,19.50
2018-04-17T17:33:40.548Z,19.50
2018-04-17T17:36:08.925Z,19.40
2018-04-17T17:38:37.375Z,19.30
2018-04-17T17:41:05.791Z,19.20
2018-04-17T17:43:34.176Z,19.20
2018-04-17T17:46:02.558Z,19.10
2018-04-17T17:48:30.888Z,18.90
2018-04-17T17:50:59.311Z,18.90
2018-04-17T17:53:27.705Z,18.80
2018-04-17T17:55:56.126Z,18.60
2018-04-17T17:58:24.454Z,18.60
2018-04-17T18:00:52.838Z,18.50
2018-04-17T18:03:21.196Z,18.30
2018-04-17T18:05:49.596Z,18.20
2018-04-17T18:08:17.984Z,18.00
2018-04-17T18:10:46.395Z,17.80
2018-04-17T18:13:15.621Z,17.50
2018-04-17T18:15:44.020Z,17.50
2018-04-17T18:18:12.420Z,17.40
2018-04-17T18:20:40.840Z,17.20
2018-04-17T18:23:09.944Z,16.90
2018-04-17T18:25:38.419Z,16.90
2018-04-17T18:28:07.575Z,16.60
2018-04-17T18:30:36.367Z,16.60
2018-04-17T18:33:05.553Z,16.40
2018-04-17T18:35:34.005Z,16.40
2018-04-17T18:38:03.613Z,16.20
2018-04-17T18:40:31.993Z,16.10
2018-04-17T18:43:00.524Z,16.10
2018-04-17T18:45:29.455Z,16.00
2018-04-17T18:47:58.217Z,15.90
2018-04-17T18:50:26.590Z,15.70
2018-04-17T18:52:56.160Z,15.60
2018-04-17T18:55:25.383Z,15.50
2018-04-17T18:57:53.797Z,15.50
2018-04-17T19:00:22.164Z,15.40
2018-04-17T19:02:50.579Z,15.30
2018-04-17T19:05:18.980Z,15.20
2018-04-17T19:07:47.342Z,15.10
2018-04-17T19:10:15.757Z,15.00
2018-04-17T19:12:44.925Z,14.80
2018-04-17T19:15:13.364Z,14.70
2018-04-17T19:17:42.180Z,14.70
2018-04-17T19:20:10.586Z,14.60
2018-04-17T19:22:38.980Z,14.50
2018-04-17T19:25:08.169Z,14.40
2018-04-17T19:27:36.512Z,14.40
2018-04-17T19:30:04.943Z,14.30
2018-04-17T19:32:34.110Z,14.10
2018-04-17T19:35:02.545Z,14.10
2018-04-17T19:37:30.964Z,14.00
2018-04-17T19:39:59.332Z,14.00
2018-04-17T19:42:27.749Z,13.90
2018-04-17T19:44:56.934Z,13.70
2018-04-17T19:47:25.393Z,13.80
2018-04-17T19:49:53.732Z,13.70
2018-04-17T19:52:22.229Z,13.60
2018-04-17T19:54:50.588Z,13.60
2018-04-17T19:57:18.948Z,13.50
2018-04-17T19:59:48.104Z,13.40
2018-04-17T20:02:16.960Z,13.40
2018-04-17T20:04:45.291Z,13.30
2018-04-17T20:07:13.717Z,13.30
2018-04-17T20:09:42.138Z,13.20
2018-04-17T20:12:10.510Z,13.20
2018-04-17T20:14:38.969Z,13.20
2018-04-17T20:17:07.747Z,13.10
2018-04-17T20:19:36.945Z,13.00
2018-04-17T20:22:05.343Z,13.00
2018-04-17T20:24:33.765Z,13.00
2018-04-17T20:27:03.487Z,12.90
2018-04-17T20:29:31.857Z,12.90
2018-04-17T20:32:03.641Z,12.90
2018-04-17T20:34:32.033Z,12.80
2018-04-17T20:37:02.226Z,12.80
2018-04-17T20:39:32.434Z,12.70
2018-04-17T20:42:00.888Z,12.70
2018-04-17T20:44:29.921Z,12.60
2018-04-17T20:47:02.422Z,12.60
2018-04-17T20:49:32.416Z,12.60
2018-04-17T20:52:00.849Z,12.50
2018-04-17T20:54:29.427Z,12.50
2018-04-17T20:56:59.375Z,12.40
2018-04-17T20:59:29.775Z,12.40
2018-04-17T21:01:59.448Z,12.30
2018-04-17T21:04:28.693Z,12.30
2018-04-17T21:06:58.858Z,12.30
2018-04-17T21:09:29.032Z,12.20
2018-04-17T21:11:58.707Z,12.20
2018-04-17T21:14:29.652Z,12.20
2018-04-17T21:16:58.205Z,12.20
2018-04-17T21:19:26.647Z,12.10
2018-04-17T21:21:55.816Z,12.10
2018-04-17T21:24:24.249Z,12.00
2018-04-17T21:26:52.644Z,12.00
2018-04-17T21:29:21.161Z,12.00
2018-04-17T21:31:49.564Z,12.00
2018-04-17T21:34:18.697Z,11.90
2018-04-17T21:36:47.204Z,11.90
2018-04-17T21:39:15.609Z,11.90
2018-04-17T21:41:44.769Z,11.80
2018-04-17T21:44:13.161Z,11.80
2018-04-17T21:46:41.555Z,11.80
2018-04-17T21:49:09.945Z,11.70
2018-04-17T21:51:39.408Z,11.70
2018-04-17T21:54:07.800Z,11.70
2018-04-17T21:56:36.197Z,11.70
2018-04-17T21:59:05.430Z,11.70
2018-04-17T22:01:33.829Z,11.70
2018-04-17T22:04:02.219Z,11.60
2018-04-17T22:06:30.620Z,11.60
2018-04-17T22:08:58.986Z,11.60
2018-04-17T22:11:27.433Z,11.60
2018-04-17T22:13:56.085Z,11.60
2018-04-17T22:16:25.239Z,11.60
2018-04-17T22:18:53.581Z,11.50
2018-04-17T22:21:22.160Z,11.50
2018-04-17T22:23:50.592Z,11.50
2018-04-17T22:26:18.993Z,11.50
2018-04-17T22:28:48.181Z,11.40
2018-04-17T22:31:17.360Z,11.40
2018-04-17T22:33:45.753Z,11.40
2018-04-17T22:36:14.194Z,11.40
2018-04-17T22:38:42.607Z,11.40
2018-04-17T22:41:11.017Z,11.30
2018-04-17T22:43:39.440Z,11.30
2018-04-17T22:46:08.765Z,11.20
2018-04-17T22:48:37.124Z,11.20
2018-04-17T22:51:05.517Z,11.10
2018-04-17T22:53:34.086Z,11.10
2018-04-17T22:56:02.514Z,11.00
2018-04-17T22:58:30.920Z,11.00
2018-04-17T23:00:59.317Z,10.90
2018-04-17T23:03:27.657Z,10.90
2018-04-17T23:05:56.063Z,10.80
2018-04-17T23:08:24.463Z,10.80
2018-04-17T23:10:53.365Z,10.80
2018-04-17T23:13:21.761Z,10.70
2018-04-17T23:15:50.925Z,10.60
2018-04-17T23:18:19.344Z,10.60
2018-04-17T23:20:47.838Z,10.60
2018-04-17T23:23:16.173Z,10.60
2018-04-17T23:25:44.536Z,10.50
2018-04-17T23:28:12.895Z,10.50
2018-04-17T23:30:41.237Z,10.50
2018-04-17T23:33:09.654Z,10.40
2018-04-17T23:35:38.002Z,10.40
2018-04-17T23:38:06.492Z,10.30
2018-04-17T23:40:34.911Z,10.30
2018-04-17T23:43:03.323Z,10.20
2018-04-17T23:45:31.749Z,10.20
2018-04-17T23:48:00.119Z,10.20
2018-04-17T23:50:28.477Z,10.10
2018-04-17T23:52:56.892Z,10.10
2018-04-17T23:55:25.357Z,10.10
2018-04-17T23:57:53.749Z,10.10
